sensor_id;sensor_type;location;lat;lon;timestamp;temperature;humidity
55648;DHT22;45266;48.756;9.246;2022-08-19T00:00:29;21.20;99.90
55648;DHT22;45266;48.756;9.246;2022-08-19T00:01:32;21.20;99.90
55648;DHT22;45266;48.756;9.246;2022-08-19T00:02:38;21.20;99.90
55648;DHT22;45266;48.756;9.246;2022-08-19T00:03:50;21.20;99.90
55648;DHT22;45266;48.756;9.246;2022-08-19T00:04:52;21.20;99.90
55648;DHT22;45266;48.756;9.246;2022-08-19T00:05:54;21.20;99.90
55648;DHT22;45266;48.756;9.246;2022-08-19T00:06:57;21.20;99.90
55648;DHT22;45266;48.756;9.246;2022-08-19T00:07:59;21.20;99.90
55648;DHT22;45266;48.756;9.246;2022-08-19T00:09:04;21.10;99.90
55648;DHT22;45266;48.756;9.246;2022-08-19T00:10:07;21.20;99.90
55648;DHT22;45266;48.756;9.246;2022-08-19T00:11:09;21.10;99.90
55648;DHT22;45266;48.756;9.246;2022-08-19T00:12:26;21.10;99.90
55648;DHT22;45266;48.756;9.246;2022-08-19T00:13:28;21.10;99.90
55648;DHT22;45266;48.756;9.246;2022-08-19T00:14:30;21.10;99.90
55648;DHT22;45266;48.756;9.246;2022-08-19T00:15:35;21.10;99.90
55648;DHT22;45266;48.756;9.246;2022-08-19T00:16:40;21.10;99.90
55648;DHT22;45266;48.756;9.246;2022-08-19T00:17:43;21.10;99.90
55648;DHT22;45266;48.756;9.246;2022-08-19T00:18:47;21.10;99.90
55648;DHT22;45266;48.756;9.246;2022-08-19T00:19:48;21.10;99.90
55648;DHT22;45266;48.756;9.246;2022-08-19T00:20:50;21.00;99.90
55648;DHT22;45266;48.756;9.246;2022-08-19T00:21:52;21.10;99.90
55648;DHT22;45266;48.756;9.246;2022-08-19T00:22:54;21.10;99.90
55648;DHT22;45266;48.756;9.246;2022-08-19T00:23:57;21.10;99.90
55648;DHT22;45266;48.756;9.246;2022-08-19T00:24:59;21.10;99.90
55648;DHT22;45266;48.756;9.246;2022-08-19T00:26:06;21.10;99.90
55648;DHT22;45266;48.756;9.246;2022-08-19T00:27:08;21.10;99.90
55648;DHT22;45266;48.756;9.246;2022-08-19T00:28:27;21.10;99.90
55648;DHT22;45266;48.756;9.246;2022-08-19T00:29:29;21.10;99.90
55648;DHT22;45266;48.756;9.246;2022-08-19T00:30:30;21.10;99.90
55648;DHT22;45266;48.756;9.246;2022-08-19T00:31:32;21.10;99.90
55648;DHT22;45266;48.756;9.246;2022-08-19T00:32:34;21.10;99.90
55648;DHT22;45266;48.756;9.246;2022-08-19T00:33:36;21.10;99.90
55648;DHT22;45266;48.756;9.246;2022-08-19T00:34:38;21.10;99.90
55648;DHT22;45266;48.756;9.246;2022-08-19T00:35:40;21.10;99.90
55648;DHT22;45266;48.756;9.246;2022-08-19T00:36:42;21.00;99.90
55648;DHT22;45266;48.756;9.246;2022-08-19T00:37:44;21.00;99.90
55648;DHT22;45266;48.756;9.246;2022-08-19T00:38:46;21.00;99.90
55648;DHT22;45266;48.756;9.246;2022-08-19T00:39:48;21.00;99.90
55648;DHT22;45266;48.756;9.246;2022-08-19T00:40:50;21.00;99.90
55648;DHT22;45266;48.756;9.246;2022-08-19T00:41:51;21.00;99.90
55648;DHT22;45266;48.756;9.246;2022-08-19T00:42:53;21.00;99.90
55648;DHT22;45266;48.756;9.246;2022-08-19T00:45:14;21.00;99.90
55648;DHT22;45266;48.756;9.246;2022-08-19T00:46:16;21.00;99.90
55648;DHT22;45266;48.756;9.246;2022-08-19T00:47:20;21.00;99.90
55648;DHT22;45266;48.756;9.246;2022-08-19T00:48:22;21.00;99.90
55648;DHT22;45266;48.756;9.246;2022-08-19T00:49:35;21.00;99.90
55648;DHT22;45266;48.756;9.246;2022-08-19T00:50:40;21.00;99.90
55648;DHT22;45266;48.756;9.246;2022-08-19T00:52:04;20.90;99.90
55648;DHT22;45266;48.756;9.246;2022-08-19T00:53:07;20.90;99.90
55648;DHT22;45266;48.756;9.246;2022-08-19T00:54:11;20.90;99.90
55648;DHT22;45266;48.756;9.246;2022-08-19T00:55:17;20.90;99.90
55648;DHT22;45266;48.756;9.246;2022-08-19T00:56:20;20.90;99.90
55648;DHT22;45266;48.756;9.246;2022-08-19T00:57:30;20.90;99.90
55648;DHT22;45266;48.756;9.246;2022-08-19T00:58:35;20.90;99.90
55648;DHT22;45266;48.756;9.246;2022-08-19T00:59:39;20.90;99.90
55648;DHT22;45266;48.756;9.246;2022-08-19T01:01:03;20.80;99.90
55648;DHT22;45266;48.756;9.246;2022-08-19T01:02:06;20.80;99.90
55648;DHT22;45266;48.756;9.246;2022-08-19T01:03:11;20.80;99.90
55648;DHT22;45266;48.756;9.246;2022-08-19T01:04:13;20.80;99.90
55648;DHT22;45266;48.756;9.246;2022-08-19T01:05:23;20.80;99.90
55648;DHT22;45266;48.756;9.246;2022-08-19T01:06:26;20.80;99.90
55648;DHT22;45266;48.756;9.246;2022-08-19T01:07:28;20.80;99.90
55648;DHT22;45266;48.756;9.246;2022-08-19T01:08:38;20.80;99.90
55648;DHT22;45266;48.756;9.246;2022-08-19T01:09:40;20.70;99.90
55648;DHT22;45266;48.756;9.246;2022-08-19T01:10:46;20.70;99.90
55648;DHT22;45266;48.756;9.246;2022-08-19T01:11:49;20.70;99.90
55648;DHT22;45266;48.756;9.246;2022-08-19T01:12:52;20.70;99.90
55648;DHT22;45266;48.756;9.246;2022-08-19T01:13:54;20.70;99.90
55648;DHT22;45266;48.756;9.246;2022-08-19T01:14:57;20.70;99.90
55648;DHT22;45266;48.756;9.246;2022-08-19T01:16:09;20.70;99.90
55648;DHT22;45266;48.756;9.246;2022-08-19T01:17:11;20.70;99.90
55648;DHT22;45266;48.756;9.246;2022-08-19T01:18:15;20.70;99.90
55648;DHT22;45266;48.756;9.246;2022-08-19T01:20:24;20.70;99.90
55648;DHT22;45266;48.756;9.246;2022-08-19T01:21:43;20.80;99.90
55648;DHT22;45266;48.756;9.246;2022-08-19T01:22:56;20.80;99.90
55648;DHT22;45266;48.756;9.246;2022-08-19T01:23:58;20.80;99.90
55648;DHT22;45266;48.756;9.246;2022-08-19T01:25:01;20.80;99.90
55648;DHT22;45266;48.756;9.246;2022-08-19T01:26:06;20.80;99.90
55648;DHT22;45266;48.756;9.246;2022-08-19T01:27:08;20.80;99.90
55648;DHT22;45266;48.756;9.246;2022-08-19T01:28:29;20.80;99.90
55648;DHT22;45266;48.756;9.246;2022-08-19T01:29:42;20.80;99.90
55648;DHT22;45266;48.756;9.246;2022-08-19T01:30:44;20.70;99.90
55648;DHT22;45266;48.756;9.246;2022-08-19T01:31:51;20.80;99.90
55648;DHT22;45266;48.756;9.246;2022-08-19T01:32:55;20.80;99.90
55648;DHT22;45266;48.756;9.246;2022-08-19T01:33:58;20.80;99.90
55648;DHT22;45266;48.756;9.246;2022-08-19T01:35:01;20.80;99.90
55648;DHT22;45266;48.756;9.246;2022-08-19T01:36:13;20.80;99.90
55648;DHT22;45266;48.756;9.246;2022-08-19T01:37:15;20.80;99.90
55648;DHT22;45266;48.756;9.246;2022-08-19T01:38:28;20.80;99.90
55648;DHT22;45266;48.756;9.246;2022-08-19T01:39:32;20.80;99.90
55648;DHT22;45266;48.756;9.246;2022-08-19T01:40:37;20.80;99.90
55648;DHT22;45266;48.756;9.246;2022-08-19T01:41:39;20.80;99.90
55648;DHT22;45266;48.756;9.246;2022-08-19T01:42:41;20.80;99.90
55648;DHT22;45266;48.756;9.246;2022-08-19T01:43:43;20.70;99.90
55648;DHT22;45266;48.756;9.246;2022-08-19T01:45:05;20.70;99.90
55648;DHT22;45266;48.756;9.246;2022-08-19T01:46:08;20.70;99.90
55648;DHT22;45266;48.756;9.246;2022-08-19T01:47:10;20.70;99.90
55648;DHT22;45266;48.756;9.246;2022-08-19T01:48:13;20.70;99.90
55648;DHT22;45266;48.756;9.246;2022-08-19T01:49:17;20.80;99.90
55648;DHT22;45266;48.756;9.246;2022-08-19T01:50:20;20.80;99.90
55648;DHT22;45266;48.756;9.246;2022-08-19T01:51:22;20.80;99.90
55648;DHT22;45266;48.756;9.246;2022-08-19T01:52:24;20.70;99.90
55648;DHT22;45266;48.756;9.246;2022-08-19T01:53:26;20.80;99.90
55648;DHT22;45266;48.756;9.246;2022-08-19T01:54:34;20.70;99.90
55648;DHT22;45266;48.756;9.246;2022-08-19T01:55:38;20.80;99.90
55648;DHT22;45266;48.756;9.246;2022-08-19T01:56:42;20.70;99.90
55648;DHT22;45266;48.756;9.246;2022-08-19T01:57:50;20.70;99.90
55648;DHT22;45266;48.756;9.246;2022-08-19T01:58:57;20.70;99.90
55648;DHT22;45266;48.756;9.246;2022-08-19T02:00:00;20.70;99.90
55648;DHT22;45266;48.756;9.246;2022-08-19T02:01:07;20.70;99.90
55648;DHT22;45266;48.756;9.246;2022-08-19T02:02:09;20.70;99.90
55648;DHT22;45266;48.756;9.246;2022-08-19T02:03:11;20.70;99.90
55648;DHT22;45266;48.756;9.246;2022-08-19T02:04:13;20.80;99.90
55648;DHT22;45266;48.756;9.246;2022-08-19T02:05:15;20.70;99.90
55648;DHT22;45266;48.756;9.246;2022-08-19T02:06:19;20.70;99.90
55648;DHT22;45266;48.756;9.246;2022-08-19T02:07:27;20.80;99.90
55648;DHT22;45266;48.756;9.246;2022-08-19T02:08:30;20.70;99.90
55648;DHT22;45266;48.756;9.246;2022-08-19T02:09:33;20.80;99.90
55648;DHT22;45266;48.756;9.246;2022-08-19T02:10:40;20.80;99.90
55648;DHT22;45266;48.756;9.246;2022-08-19T02:11:42;20.70;99.90
55648;DHT22;45266;48.756;9.246;2022-08-19T02:12:45;20.80;99.90
55648;DHT22;45266;48.756;9.246;2022-08-19T02:13:48;20.80;99.90
55648;DHT22;45266;48.756;9.246;2022-08-19T02:14:50;20.80;99.90
55648;DHT22;45266;48.756;9.246;2022-08-19T02:15:52;20.70;99.90
55648;DHT22;45266;48.756;9.246;2022-08-19T02:16:54;20.70;99.90
55648;DHT22;45266;48.756;9.246;2022-08-19T02:17:56;20.70;99.90
55648;DHT22;45266;48.756;9.246;2022-08-19T02:18:58;20.70;99.90
55648;DHT22;45266;48.756;9.246;2022-08-19T02:20:03;20.70;99.90
55648;DHT22;45266;48.756;9.246;2022-08-19T02:21:05;20.70;99.90
55648;DHT22;45266;48.756;9.246;2022-08-19T02:22:07;20.70;99.90
55648;DHT22;45266;48.756;9.246;2022-08-19T02:23:10;20.70;99.90
55648;DHT22;45266;48.756;9.246;2022-08-19T02:24:16;20.70;99.90
55648;DHT22;45266;48.756;9.246;2022-08-19T02:25:18;20.70;99.90
55648;DHT22;45266;48.756;9.246;2022-08-19T02:26:20;20.70;99.90
55648;DHT22;45266;48.756;9.246;2022-08-19T02:27:22;20.70;99.90
55648;DHT22;45266;48.756;9.246;2022-08-19T02:28:24;20.70;99.90
55648;DHT22;45266;48.756;9.246;2022-08-19T02:29:26;20.70;99.90
55648;DHT22;45266;48.756;9.246;2022-08-19T02:30:28;20.70;99.90
55648;DHT22;45266;48.756;9.246;2022-08-19T02:31:29;20.70;99.90
55648;DHT22;45266;48.756;9.246;2022-08-19T02:32:31;20.70;99.90
55648;DHT22;45266;48.756;9.246;2022-08-19T02:33:35;20.70;99.90
55648;DHT22;45266;48.756;9.246;2022-08-19T02:34:36;20.70;99.90
55648;DHT22;45266;48.756;9.246;2022-08-19T02:35:42;20.70;99.90
55648;DHT22;45266;48.756;9.246;2022-08-19T02:36:44;20.70;99.90
55648;DHT22;45266;48.756;9.246;2022-08-19T02:37:52;20.60;99.90
55648;DHT22;45266;48.756;9.246;2022-08-19T02:39:12;20.70;99.90
55648;DHT22;45266;48.756;9.246;2022-08-19T02:40:15;20.70;99.90
55648;DHT22;45266;48.756;9.246;2022-08-19T02:41:22;20.60;99.90
55648;DHT22;45266;48.756;9.246;2022-08-19T02:42:27;20.60;99.90
55648;DHT22;45266;48.756;9.246;2022-08-19T02:43:31;20.60;99.90
55648;DHT22;45266;48.756;9.246;2022-08-19T02:44:35;20.60;99.90
55648;DHT22;45266;48.756;9.246;2022-08-19T02:45:38;20.60;99.90
55648;DHT22;45266;48.756;9.246;2022-08-19T02:46:45;20.70;99.90
55648;DHT22;45266;48.756;9.246;2022-08-19T02:47:47;20.60;99.90
55648;DHT22;45266;48.756;9.246;2022-08-19T02:48:51;20.60;99.90
55648;DHT22;45266;48.756;9.246;2022-08-19T02:49:53;20.60;99.90
55648;DHT22;45266;48.756;9.246;2022-08-19T02:50:55;20.60;99.90
55648;DHT22;45266;48.756;9.246;2022-08-19T02:51:57;20.60;99.90
55648;DHT22;45266;48.756;9.246;2022-08-19T02:52:59;20.60;99.90
55648;DHT22;45266;48.756;9.246;2022-08-19T02:54:01;20.50;99.90
55648;DHT22;45266;48.756;9.246;2022-08-19T02:55:04;20.50;99.90
55648;DHT22;45266;48.756;9.246;2022-08-19T02:56:07;20.50;99.90
55648;DHT22;45266;48.756;9.246;2022-08-19T02:57:09;20.50;99.90
55648;DHT22;45266;48.756;9.246;2022-08-19T02:58:12;20.50;99.90
55648;DHT22;45266;48.756;9.246;2022-08-19T02:59:14;20.50;99.90
55648;DHT22;45266;48.756;9.246;2022-08-19T03:00:16;20.50;99.90
55648;DHT22;45266;48.756;9.246;2022-08-19T03:01:24;20.50;99.90
55648;DHT22;45266;48.756;9.246;2022-08-19T03:02:26;20.50;99.90
55648;DHT22;45266;48.756;9.246;2022-08-19T03:03:28;20.40;99.90
55648;DHT22;45266;48.756;9.246;2022-08-19T03:04:31;20.40;99.90
55648;DHT22;45266;48.756;9.246;2022-08-19T03:05:32;20.40;99.90
55648;DHT22;45266;48.756;9.246;2022-08-19T03:06:55;20.40;99.90
55648;DHT22;45266;48.756;9.246;2022-08-19T03:08:08;20.30;99.90
55648;DHT22;45266;48.756;9.246;2022-08-19T03:09:14;20.40;99.90
55648;DHT22;45266;48.756;9.246;2022-08-19T03:10:16;20.30;99.90
55648;DHT22;45266;48.756;9.246;2022-08-19T03:11:20;20.40;99.90
55648;DHT22;45266;48.756;9.246;2022-08-19T03:12:22;20.40;99.90
55648;DHT22;45266;48.756;9.246;2022-08-19T03:13:24;20.30;99.90
55648;DHT22;45266;48.756;9.246;2022-08-19T03:14:26;20.30;99.90
55648;DHT22;45266;48.756;9.246;2022-08-19T03:15:28;20.30;99.90
55648;DHT22;45266;48.756;9.246;2022-08-19T03:16:32;20.30;99.90
55648;DHT22;45266;48.756;9.246;2022-08-19T03:17:34;20.30;99.90
55648;DHT22;45266;48.756;9.246;2022-08-19T03:18:37;20.30;99.90
55648;DHT22;45266;48.756;9.246;2022-08-19T03:19:38;20.30;99.90
55648;DHT22;45266;48.756;9.246;2022-08-19T03:20:48;20.20;99.90
55648;DHT22;45266;48.756;9.246;2022-08-19T03:21:51;20.20;99.90
55648;DHT22;45266;48.756;9.246;2022-08-19T03:22:53;20.20;99.90
55648;DHT22;45266;48.756;9.246;2022-08-19T03:23:56;20.20;99.90
55648;DHT22;45266;48.756;9.246;2022-08-19T03:24:58;20.20;99.90
55648;DHT22;45266;48.756;9.246;2022-08-19T03:26:04;20.20;99.90
55648;DHT22;45266;48.756;9.246;2022-08-19T03:27:17;20.20;99.90
55648;DHT22;45266;48.756;9.246;2022-08-19T03:28:20;20.20;99.90
55648;DHT22;45266;48.756;9.246;2022-08-19T03:29:23;20.20;99.90
55648;DHT22;45266;48.756;9.246;2022-08-19T03:30:31;20.20;99.90
55648;DHT22;45266;48.756;9.246;2022-08-19T03:31:34;20.20;99.90
55648;DHT22;45266;48.756;9.246;2022-08-19T03:32:46;20.20;99.90
55648;DHT22;45266;48.756;9.246;2022-08-19T03:33:57;20.10;99.90
55648;DHT22;45266;48.756;9.246;2022-08-19T03:34:59;20.20;99.90
55648;DHT22;45266;48.756;9.246;2022-08-19T03:36:03;20.10;99.90
55648;DHT22;45266;48.756;9.246;2022-08-19T03:37:10;20.20;99.90
55648;DHT22;45266;48.756;9.246;2022-08-19T03:38:13;20.10;99.90
55648;DHT22;45266;48.756;9.246;2022-08-19T03:39:16;20.20;99.90
55648;DHT22;45266;48.756;9.246;2022-08-19T03:40:18;20.20;99.90
55648;DHT22;45266;48.756;9.246;2022-08-19T03:41:23;20.10;99.90
55648;DHT22;45266;48.756;9.246;2022-08-19T03:42:43;20.10;99.90
55648;DHT22;45266;48.756;9.246;2022-08-19T03:43:50;20.10;99.90
55648;DHT22;45266;48.756;9.246;2022-08-19T03:44:53;20.10;99.90
55648;DHT22;45266;48.756;9.246;2022-08-19T03:46:09;20.10;99.90
55648;DHT22;45266;48.756;9.246;2022-08-19T03:47:11;20.10;99.90
55648;DHT22;45266;48.756;9.246;2022-08-19T03:48:18;20.10;99.90
55648;DHT22;45266;48.756;9.246;2022-08-19T03:49:20;20.10;99.90
55648;DHT22;45266;48.756;9.246;2022-08-19T03:50:28;20.10;99.90
55648;DHT22;45266;48.756;9.246;2022-08-19T03:51:33;20.10;99.90
55648;DHT22;45266;48.756;9.246;2022-08-19T03:52:36;20.10;99.90
55648;DHT22;45266;48.756;9.246;2022-08-19T03:53:38;20.10;99.90
55648;DHT22;45266;48.756;9.246;2022-08-19T03:54:41;20.10;99.90
55648;DHT22;45266;48.756;9.246;2022-08-19T03:55:43;20.10;99.90
55648;DHT22;45266;48.756;9.246;2022-08-19T03:56:47;20.10;99.90
55648;DHT22;45266;48.756;9.246;2022-08-19T03:57:49;20.10;99.90
55648;DHT22;45266;48.756;9.246;2022-08-19T03:58:51;20.10;99.90
55648;DHT22;45266;48.756;9.246;2022-08-19T03:59:54;20.10;99.90
55648;DHT22;45266;48.756;9.246;2022-08-19T04:01:11;20.10;99.90
55648;DHT22;45266;48.756;9.246;2022-08-19T04:02:13;20.10;99.90
55648;DHT22;45266;48.756;9.246;2022-08-19T04:03:16;20.10;99.90
55648;DHT22;45266;48.756;9.246;2022-08-19T04:04:20;20.10;99.90
55648;DHT22;45266;48.756;9.246;2022-08-19T04:05:22;20.10;99.90
55648;DHT22;45266;48.756;9.246;2022-08-19T04:06:30;20.10;99.90
55648;DHT22;45266;48.756;9.246;2022-08-19T04:07:33;20.10;99.90
55648;DHT22;45266;48.756;9.246;2022-08-19T04:08:35;20.00;99.90
55648;DHT22;45266;48.756;9.246;2022-08-19T04:09:37;20.00;99.90
55648;DHT22;45266;48.756;9.246;2022-08-19T04:10:39;20.00;99.90
55648;DHT22;45266;48.756;9.246;2022-08-19T04:11:53;20.00;99.90
55648;DHT22;45266;48.756;9.246;2022-08-19T04:12:55;20.00;99.90
55648;DHT22;45266;48.756;9.246;2022-08-19T04:13:57;20.00;99.90
55648;DHT22;45266;48.756;9.246;2022-08-19T04:14:59;20.00;99.90
55648;DHT22;45266;48.756;9.246;2022-08-19T04:16:01;20.00;99.90
55648;DHT22;45266;48.756;9.246;2022-08-19T04:17:03;20.00;99.90
55648;DHT22;45266;48.756;9.246;2022-08-19T04:18:07;19.90;99.90
55648;DHT22;45266;48.756;9.246;2022-08-19T04:19:09;19.90;99.90
55648;DHT22;45266;48.756;9.246;2022-08-19T04:20:11;20.00;99.90
55648;DHT22;45266;48.756;9.246;2022-08-19T04:21:21;19.90;99.90
55648;DHT22;45266;48.756;9.246;2022-08-19T04:22:22;19.90;99.90
55648;DHT22;45266;48.756;9.246;2022-08-19T04:23:27;19.90;99.90
55648;DHT22;45266;48.756;9.246;2022-08-19T04:24:34;19.90;99.90
55648;DHT22;45266;48.756;9.246;2022-08-19T04:25:41;20.00;99.90
55648;DHT22;45266;48.756;9.246;2022-08-19T04:26:44;20.00;99.90
55648;DHT22;45266;48.756;9.246;2022-08-19T04:27:45;19.90;99.90
55648;DHT22;45266;48.756;9.246;2022-08-19T04:28:48;20.00;99.90
55648;DHT22;45266;48.756;9.246;2022-08-19T04:29:50;19.90;99.90
55648;DHT22;45266;48.756;9.246;2022-08-19T04:30:54;20.00;99.90
55648;DHT22;45266;48.756;9.246;2022-08-19T04:31:57;19.90;99.90
55648;DHT22;45266;48.756;9.246;2022-08-19T04:32:59;19.90;99.90
55648;DHT22;45266;48.756;9.246;2022-08-19T04:34:04;19.90;99.90
55648;DHT22;45266;48.756;9.246;2022-08-19T04:35:07;19.90;99.90
55648;DHT22;45266;48.756;9.246;2022-08-19T04:36:26;19.90;99.90
55648;DHT22;45266;48.756;9.246;2022-08-19T04:37:28;19.90;99.90
55648;DHT22;45266;48.756;9.246;2022-08-19T04:38:36;19.90;99.90
55648;DHT22;45266;48.756;9.246;2022-08-19T04:39:38;19.90;99.90
55648;DHT22;45266;48.756;9.246;2022-08-19T04:41:16;19.90;99.90
55648;DHT22;45266;48.756;9.246;2022-08-19T04:42:36;19.90;99.90
55648;DHT22;45266;48.756;9.246;2022-08-19T04:43:40;19.90;99.90
55648;DHT22;45266;48.756;9.246;2022-08-19T04:44:42;19.90;99.90
55648;DHT22;45266;48.756;9.246;2022-08-19T04:45:47;19.90;99.90
55648;DHT22;45266;48.756;9.246;2022-08-19T04:46:50;19.90;99.90
55648;DHT22;45266;48.756;9.246;2022-08-19T04:47:55;19.90;99.90
55648;DHT22;45266;48.756;9.246;2022-08-19T04:49:22;19.90;99.90
55648;DHT22;45266;48.756;9.246;2022-08-19T04:50:25;19.90;99.90
55648;DHT22;45266;48.756;9.246;2022-08-19T04:51:28;19.90;99.90
55648;DHT22;45266;48.756;9.246;2022-08-19T04:52:32;19.90;99.90
55648;DHT22;45266;48.756;9.246;2022-08-19T04:53:36;19.90;99.90
55648;DHT22;45266;48.756;9.246;2022-08-19T04:54:38;19.90;99.90
55648;DHT22;45266;48.756;9.246;2022-08-19T04:55:41;19.90;99.90
55648;DHT22;45266;48.756;9.246;2022-08-19T04:56:43;19.90;99.90
55648;DHT22;45266;48.756;9.246;2022-08-19T04:57:45;19.90;99.90
55648;DHT22;45266;48.756;9.246;2022-08-19T04:58:49;19.90;99.90
55648;DHT22;45266;48.756;9.246;2022-08-19T04:59:56;19.90;99.90
55648;DHT22;45266;48.756;9.246;2022-08-19T05:00:58;19.90;99.90
55648;DHT22;45266;48.756;9.246;2022-08-19T05:02:02;19.90;99.90
55648;DHT22;45266;48.756;9.246;2022-08-19T05:03:04;19.90;99.90
55648;DHT22;45266;48.756;9.246;2022-08-19T05:04:08;19.90;99.90
55648;DHT22;45266;48.756;9.246;2022-08-19T05:05:10;19.90;99.90
55648;DHT22;45266;48.756;9.246;2022-08-19T05:06:15;19.90;99.90
55648;DHT22;45266;48.756;9.246;2022-08-19T05:07:17;19.90;99.90
55648;DHT22;45266;48.756;9.246;2022-08-19T05:08:20;19.90;99.90
55648;DHT22;45266;48.756;9.246;2022-08-19T05:09:32;20.00;99.90
55648;DHT22;45266;48.756;9.246;2022-08-19T05:10:53;20.00;99.90
55648;DHT22;45266;48.756;9.246;2022-08-19T05:11:55;20.00;99.90
55648;DHT22;45266;48.756;9.246;2022-08-19T05:12:57;20.00;99.90
55648;DHT22;45266;48.756;9.246;2022-08-19T05:14:00;20.00;99.90
55648;DHT22;45266;48.756;9.246;2022-08-19T05:15:06;20.00;99.90
55648;DHT22;45266;48.756;9.246;2022-08-19T05:16:11;20.00;99.90
55648;DHT22;45266;48.756;9.246;2022-08-19T05:17:14;20.00;99.90
55648;DHT22;45266;48.756;9.246;2022-08-19T05:18:36;20.00;99.90
55648;DHT22;45266;48.756;9.246;2022-08-19T05:19:57;20.00;99.90
55648;DHT22;45266;48.756;9.246;2022-08-19T05:21:18;20.00;99.90
55648;DHT22;45266;48.756;9.246;2022-08-19T05:22:41;20.00;99.90
55648;DHT22;45266;48.756;9.246;2022-08-19T05:23:43;20.00;99.90
55648;DHT22;45266;48.756;9.246;2022-08-19T05:24:45;20.00;99.90
55648;DHT22;45266;48.756;9.246;2022-08-19T05:26:07;20.10;99.90
55648;DHT22;45266;48.756;9.246;2022-08-19T05:27:10;20.10;99.90
55648;DHT22;45266;48.756;9.246;2022-08-19T05:28:12;20.10;99.90
55648;DHT22;45266;48.756;9.246;2022-08-19T05:29:16;20.10;99.90
55648;DHT22;45266;48.756;9.246;2022-08-19T05:30:18;20.10;99.90
55648;DHT22;45266;48.756;9.246;2022-08-19T05:31:40;20.10;99.90
55648;DHT22;45266;48.756;9.246;2022-08-19T05:32:42;20.10;99.90
55648;DHT22;45266;48.756;9.246;2022-08-19T05:33:45;20.10;99.90
55648;DHT22;45266;48.756;9.246;2022-08-19T05:34:46;20.10;99.90
55648;DHT22;45266;48.756;9.246;2022-08-19T05:35:48;20.10;99.90
55648;DHT22;45266;48.756;9.246;2022-08-19T05:36:55;20.10;99.90
55648;DHT22;45266;48.756;9.246;2022-08-19T05:37:58;20.10;99.90
55648;DHT22;45266;48.756;9.246;2022-08-19T05:39:00;20.10;99.90
55648;DHT22;45266;48.756;9.246;2022-08-19T05:40:03;20.10;99.90
55648;DHT22;45266;48.756;9.246;2022-08-19T05:41:14;20.10;99.90
55648;DHT22;45266;48.756;9.246;2022-08-19T05:42:16;20.20;99.90
55648;DHT22;45266;48.756;9.246;2022-08-19T05:43:18;20.20;99.90
55648;DHT22;45266;48.756;9.246;2022-08-19T05:44:20;20.20;99.90
55648;DHT22;45266;48.756;9.246;2022-08-19T05:45:23;20.10;99.90
55648;DHT22;45266;48.756;9.246;2022-08-19T05:46:26;20.20;99.90
55648;DHT22;45266;48.756;9.246;2022-08-19T05:47:28;20.20;99.90
55648;DHT22;45266;48.756;9.246;2022-08-19T05:48:30;20.20;99.90
55648;DHT22;45266;48.756;9.246;2022-08-19T05:49:33;20.20;99.90
55648;DHT22;45266;48.756;9.246;2022-08-19T05:50:35;20.20;99.90
55648;DHT22;45266;48.756;9.246;2022-08-19T05:51:37;20.20;99.90
55648;DHT22;45266;48.756;9.246;2022-08-19T05:52:39;20.20;99.90
55648;DHT22;45266;48.756;9.246;2022-08-19T05:53:51;20.20;99.90
55648;DHT22;45266;48.756;9.246;2022-08-19T05:54:53;20.20;99.90
55648;DHT22;45266;48.756;9.246;2022-08-19T05:55:57;20.20;99.90
55648;DHT22;45266;48.756;9.246;2022-08-19T05:57:01;20.20;99.90
55648;DHT22;45266;48.756;9.246;2022-08-19T05:58:03;20.30;99.90
55648;DHT22;45266;48.756;9.246;2022-08-19T05:59:07;20.30;99.90
55648;DHT22;45266;48.756;9.246;2022-08-19T06:00:11;20.30;99.90
55648;DHT22;45266;48.756;9.246;2022-08-19T06:01:16;20.30;99.90
55648;DHT22;45266;48.756;9.246;2022-08-19T06:02:18;20.30;99.90
55648;DHT22;45266;48.756;9.246;2022-08-19T06:03:20;20.30;99.90
55648;DHT22;45266;48.756;9.246;2022-08-19T06:04:22;20.30;99.90
55648;DHT22;45266;48.756;9.246;2022-08-19T06:05:24;20.30;99.90
55648;DHT22;45266;48.756;9.246;2022-08-19T06:06:26;20.30;99.90
55648;DHT22;45266;48.756;9.246;2022-08-19T06:07:28;20.30;99.90
55648;DHT22;45266;48.756;9.246;2022-08-19T06:08:30;20.30;99.90
55648;DHT22;45266;48.756;9.246;2022-08-19T06:09:35;20.30;99.90
55648;DHT22;45266;48.756;9.246;2022-08-19T06:10:37;20.30;99.90
55648;DHT22;45266;48.756;9.246;2022-08-19T06:11:48;20.30;99.90
55648;DHT22;45266;48.756;9.246;2022-08-19T06:12:56;20.30;99.90
55648;DHT22;45266;48.756;9.246;2022-08-19T06:14:01;20.30;99.90
55648;DHT22;45266;48.756;9.246;2022-08-19T06:15:08;20.30;99.90
55648;DHT22;45266;48.756;9.246;2022-08-19T06:16:10;20.20;99.90
55648;DHT22;45266;48.756;9.246;2022-08-19T06:17:12;20.20;99.90
55648;DHT22;45266;48.756;9.246;2022-08-19T06:18:15;20.10;99.90
55648;DHT22;45266;48.756;9.246;2022-08-19T06:19:18;20.10;99.90
55648;DHT22;45266;48.756;9.246;2022-08-19T06:20:20;20.10;99.90
55648;DHT22;45266;48.756;9.246;2022-08-19T06:21:45;20.00;99.90
55648;DHT22;45266;48.756;9.246;2022-08-19T06:22:48;19.90;99.90
55648;DHT22;45266;48.756;9.246;2022-08-19T06:23:51;19.90;99.90
55648;DHT22;45266;48.756;9.246;2022-08-19T06:24:54;19.90;99.90
55648;DHT22;45266;48.756;9.246;2022-08-19T06:25:56;19.90;99.90
55648;DHT22;45266;48.756;9.246;2022-08-19T06:26:58;19.90;99.90
55648;DHT22;45266;48.756;9.246;2022-08-19T06:28:02;19.80;99.90
55648;DHT22;45266;48.756;9.246;2022-08-19T06:29:22;19.80;99.90
55648;DHT22;45266;48.756;9.246;2022-08-19T06:30:25;19.80;99.90
55648;DHT22;45266;48.756;9.246;2022-08-19T06:31:29;19.80;99.90
55648;DHT22;45266;48.756;9.246;2022-08-19T06:32:34;19.80;99.90
55648;DHT22;45266;48.756;9.246;2022-08-19T06:33:44;19.80;99.90
55648;DHT22;45266;48.756;9.246;2022-08-19T06:34:46;19.80;99.90
55648;DHT22;45266;48.756;9.246;2022-08-19T06:35:48;19.70;99.90
55648;DHT22;45266;48.756;9.246;2022-08-19T06:36:51;19.70;99.90
55648;DHT22;45266;48.756;9.246;2022-08-19T06:37:53;19.70;99.90
55648;DHT22;45266;48.756;9.246;2022-08-19T06:38:56;19.70;99.90
55648;DHT22;45266;48.756;9.246;2022-08-19T06:40:00;19.70;99.90
55648;DHT22;45266;48.756;9.246;2022-08-19T06:41:04;19.70;99.90
55648;DHT22;45266;48.756;9.246;2022-08-19T06:42:09;19.70;99.90
55648;DHT22;45266;48.756;9.246;2022-08-19T06:43:13;19.70;99.90
55648;DHT22;45266;48.756;9.246;2022-08-19T06:44:21;19.70;99.90
55648;DHT22;45266;48.756;9.246;2022-08-19T06:45:26;19.70;99.90
55648;DHT22;45266;48.756;9.246;2022-08-19T06:46:36;19.70;99.90
55648;DHT22;45266;48.756;9.246;2022-08-19T06:47:40;19.70;99.90
55648;DHT22;45266;48.756;9.246;2022-08-19T06:48:46;19.70;99.90
55648;DHT22;45266;48.756;9.246;2022-08-19T06:49:48;19.70;99.90
55648;DHT22;45266;48.756;9.246;2022-08-19T06:50:49;19.70;99.90
55648;DHT22;45266;48.756;9.246;2022-08-19T06:51:53;19.70;99.90